KCAK/CAK METAR and TAF weather

Enter ICAO airport designator
Station Type Date Time Source
KCAK METAR 2019/12/13 21:51 UTC NOAA

KCAK 132151Z 15004KT 8SM OVC012 04/01 A2995 RMK AO2 SLP154 T00390011


Station Type Date Time Source
KCAK Decoded METAR 2019/12/13 21:51 UTC NOAA

AKRON-CANTON REGIONAL AIRPORT , OH, United States (KCAK) 40-55N 081-27W 377M
Dec 13, 2019 - 04:51 PM EST / 2019.12.13 2151 UTC
Wind: from the SSE (150 degrees) at 5 MPH (4 KT):0
Visibility: 8 mile(s):0
Sky conditions: overcast
Temperature: 39.0 F (3.9 C)
Dew Point: 34.0 F (1.1 C)
Relative Humidity: 81%
Pressure (altimeter): 29.95 in. Hg (1014 hPa)
ob: KCAK 132151Z 15004KT 8SM OVC012 04/01 A2995 RMK AO2 SLP154 T00390011
cycle: 22

Station Type Date Time Source
KCAK TAF 2019/12/13 21:18 UTC NOAA

TAF
AMD KCAK 132116Z 1321/1418 16007KT P6SM OVC015
FM132300 12004KT P6SM OVC010
FM140200 VRB03KT P6SM VCSH OVC020
FM140500 02005KT P6SM OVC003
FM140800 35006KT 5SM -RA BR OVC005

Example: see airport list